createdAt,value
2017-09-07T00:02:12.538Z,7.00
2017-09-07T00:04:40.114Z,6.27
2017-09-07T00:07:07.967Z,9.57
2017-09-07T00:09:35.516Z,9.27
2017-09-07T00:12:03.158Z,8.37
2017-09-07T00:14:30.753Z,7.70
2017-09-07T00:16:58.308Z,7.47
2017-09-07T00:19:25.881Z,7.93
2017-09-07T00:21:54.258Z,12.17
2017-09-07T00:24:21.799Z,7.17
2017-09-07T00:26:49.567Z,9.00
2017-09-07T00:29:17.320Z,9.53
2017-09-07T00:31:44.891Z,6.83
2017-09-07T00:34:12.414Z,6.83
2017-09-07T00:36:40.021Z,12.10
2017-09-07T00:39:08.441Z,9.50
2017-09-07T00:41:36.127Z,7.57
2017-09-07T00:44:04.471Z,9.93
2017-09-07T00:46:32.953Z,8.47
2017-09-07T00:49:00.625Z,10.67
2017-09-07T00:51:29.162Z,10.30
2017-09-07T00:53:56.824Z,18.00
2017-09-07T00:56:24.351Z,9.00
2017-09-07T00:58:51.979Z,8.00
2017-09-07T01:01:19.573Z,7.73
2017-09-07T01:03:47.127Z,10.73
2017-09-07T01:06:14.637Z,9.30
2017-09-07T01:08:42.250Z,8.77
2017-09-07T01:11:09.800Z,10.50
2017-09-07T01:13:37.329Z,7.73
2017-09-07T01:16:04.918Z,10.60
2017-09-07T01:18:32.485Z,10.47
2017-09-07T01:21:00.775Z,9.37
2017-09-07T01:23:29.201Z,8.13
2017-09-07T01:25:56.748Z,9.60
2017-09-07T01:28:24.507Z,8.23
2017-09-07T01:30:52.420Z,10.23
2017-09-07T01:33:19.990Z,9.43
2017-09-07T01:35:47.800Z,11.17
2017-09-07T01:38:15.371Z,11.00
2017-09-07T01:40:43.405Z,11.17
2017-09-07T01:43:10.979Z,9.07
2017-09-07T01:45:39.357Z,12.03
2017-09-07T01:51:49.011Z,9.63
2017-09-07T01:54:16.567Z,9.33
2017-09-07T01:56:45.212Z,9.77
2017-09-07T01:59:12.818Z,11.00
2017-09-07T02:01:40.396Z,10.00
2017-09-07T02:04:07.913Z,15.70
2017-09-07T02:06:35.508Z,8.60
2017-09-07T02:09:03.153Z,7.83
2017-09-07T02:11:30.675Z,9.57
2017-09-07T02:13:58.421Z,9.20
2017-09-07T02:16:26.200Z,13.03
2017-09-07T02:18:54.172Z,8.67
2017-09-07T02:21:21.736Z,10.43
2017-09-07T02:23:49.340Z,7.77
2017-09-07T02:26:16.897Z,9.60
2017-09-07T02:28:44.459Z,7.37
2017-09-07T02:31:12.030Z,7.27
2017-09-07T02:33:39.587Z,7.43
2017-09-07T02:36:07.218Z,13.13
2017-09-07T02:38:34.792Z,6.50
2017-09-07T02:41:02.350Z,7.60
2017-09-07T02:43:29.870Z,8.83
2017-09-07T02:45:57.441Z,7.90
2017-09-07T02:48:24.982Z,7.30
2017-09-07T02:50:52.745Z,9.20
2017-09-07T02:53:20.320Z,7.70
2017-09-07T02:55:48.132Z,10.07
2017-09-07T02:58:15.868Z,13.80
2017-09-07T03:00:44.331Z,9.63
2017-09-07T03:03:11.894Z,9.53
2017-09-07T03:05:39.423Z,7.80
2017-09-07T03:08:06.970Z,9.03
2017-09-07T03:10:34.486Z,7.50
2017-09-07T03:13:02.046Z,11.30
2017-09-07T03:15:29.626Z,8.70
2017-09-07T03:17:57.148Z,8.93
2017-09-07T03:20:24.658Z,9.13
2017-09-07T03:22:52.231Z,8.90
2017-09-07T03:25:19.778Z,10.30
2017-09-07T03:27:47.544Z,10.60
2017-09-07T03:30:15.247Z,7.80
2017-09-07T03:32:42.780Z,9.53
2017-09-07T03:35:10.293Z,9.57
2017-09-07T03:37:37.856Z,11.50
2017-09-07T03:40:05.428Z,10.70
2017-09-07T03:42:33.206Z,9.60
2017-09-07T03:45:00.795Z,11.73
2017-09-07T03:47:28.332Z,10.70
2017-09-07T03:49:55.855Z,8.87
2017-09-07T03:52:23.494Z,10.57
2017-09-07T03:54:51.020Z,10.17
2017-09-07T03:57:18.769Z,10.57
2017-09-07T03:59:46.333Z,10.10
2017-09-07T04:02:13.947Z,15.93
2017-09-07T04:04:41.458Z,13.93
2017-09-07T04:07:08.981Z,12.13
2017-09-07T04:09:36.517Z,11.67
2017-09-07T04:12:04.258Z,21.23
2017-09-07T04:14:31.809Z,11.97
2017-09-07T04:16:59.362Z,15.53
2017-09-07T04:19:26.873Z,9.33
2017-09-07T04:21:54.472Z,12.30
2017-09-07T04:24:22.061Z,12.17
2017-09-07T04:26:49.589Z,15.93
2017-09-07T04:29:17.110Z,11.37
2017-09-07T04:31:44.897Z,14.10
2017-09-07T04:34:12.393Z,11.50
2017-09-07T04:36:39.888Z,11.70
2017-09-07T04:39:07.437Z,10.73
2017-09-07T04:41:34.950Z,12.07
2017-09-07T04:44:02.496Z,15.73
2017-09-07T04:46:30.065Z,20.17
2017-09-07T04:48:57.569Z,12.17
2017-09-07T04:51:25.111Z,19.03
2017-09-07T04:53:52.669Z,18.77
2017-09-07T04:56:20.195Z,15.23
2017-09-07T04:58:47.704Z,11.53
2017-09-07T05:01:15.600Z,15.17
2017-09-07T05:03:43.129Z,16.97
2017-09-07T05:06:10.660Z,14.50
2017-09-07T05:08:38.272Z,20.37
2017-09-07T05:11:05.791Z,17.37
2017-09-07T05:13:33.322Z,12.87
2017-09-07T05:16:00.925Z,13.97
2017-09-07T05:18:28.446Z,20.63
2017-09-07T05:20:55.971Z,20.70
2017-09-07T05:23:23.562Z,22.50
2017-09-07T05:25:51.080Z,16.90
2017-09-07T05:28:18.832Z,18.63
2017-09-07T05:30:46.405Z,19.13
2017-09-07T05:33:13.936Z,26.77
2017-09-07T05:35:41.449Z,23.43
2017-09-07T05:38:08.981Z,14.97
2017-09-07T05:40:36.537Z,13.77
2017-09-07T05:43:04.085Z,18.40
2017-09-07T05:45:31.667Z,17.90
2017-09-07T05:47:59.203Z,12.20
2017-09-07T05:50:26.731Z,12.53
2017-09-07T05:52:54.308Z,12.87
2017-09-07T05:55:22.129Z,15.27
2017-09-07T05:57:49.644Z,15.07
2017-09-07T06:00:17.349Z,11.87
2017-09-07T06:02:44.864Z,10.30
2017-09-07T06:05:12.423Z,13.80
2017-09-07T06:07:39.996Z,11.23
2017-09-07T06:10:07.523Z,14.57
2017-09-07T06:12:35.044Z,14.47
2017-09-07T06:15:02.631Z,12.40
2017-09-07T06:17:30.469Z,11.03
2017-09-07T06:19:58.036Z,11.60
2017-09-07T06:22:25.573Z,12.03
2017-09-07T06:24:53.109Z,17.43
2017-09-07T06:27:20.643Z,15.80
2017-09-07T06:29:48.181Z,13.67
2017-09-07T06:32:15.783Z,13.50
2017-09-07T06:34:43.321Z,13.87
2017-09-07T06:37:10.862Z,10.33
2017-09-07T06:39:38.429Z,11.33
2017-09-07T06:42:05.978Z,11.53
2017-09-07T06:44:33.492Z,14.77
2017-09-07T06:47:01.286Z,10.20
2017-09-07T06:49:28.785Z,11.07
2017-09-07T06:51:56.307Z,10.40
2017-09-07T06:54:23.866Z,16.57
2017-09-07T06:56:51.417Z,18.50
2017-09-07T06:59:18.930Z,12.73
2017-09-07T07:01:46.533Z,10.17
2017-09-07T07:04:14.089Z,12.23
2017-09-07T07:06:41.619Z,12.23
2017-09-07T07:09:09.814Z,12.47
2017-09-07T07:11:37.681Z,13.03
2017-09-07T07:14:05.227Z,11.40
2017-09-07T07:16:32.794Z,11.57
2017-09-07T07:19:00.307Z,10.70
2017-09-07T07:21:27.832Z,19.10
2017-09-07T07:23:55.441Z,10.30
2017-09-07T07:26:23.179Z,9.13
2017-09-07T07:28:50.732Z,10.80
2017-09-07T07:31:18.276Z,9.70
2017-09-07T07:33:46.620Z,10.13
2017-09-07T07:36:14.442Z,11.30
2017-09-07T07:38:42.066Z,12.83
2017-09-07T07:41:09.612Z,12.83
2017-09-07T07:43:37.130Z,12.33
2017-09-07T07:46:04.691Z,12.90
2017-09-07T07:48:32.212Z,12.37
2017-09-07T07:50:59.766Z,10.60
2017-09-07T07:53:27.345Z,15.13
2017-09-07T07:55:54.898Z,16.90
2017-09-07T07:58:22.405Z,12.53
2017-09-07T08:00:49.961Z,13.50
2017-09-07T08:03:17.817Z,10.37
2017-09-07T08:05:45.325Z,12.23
2017-09-07T08:08:12.860Z,9.10
2017-09-07T08:10:40.404Z,12.63
2017-09-07T08:13:07.933Z,11.07
2017-09-07T08:15:35.477Z,12.43
2017-09-07T08:18:03.373Z,18.63
2017-09-07T08:20:30.925Z,13.97
2017-09-07T08:22:58.494Z,12.20
2017-09-07T08:25:26.006Z,9.33
2017-09-07T08:27:53.544Z,9.13
2017-09-07T08:30:21.131Z,15.00
2017-09-07T08:32:48.644Z,11.13
2017-09-07T08:35:16.171Z,15.40
2017-09-07T08:37:44.010Z,9.10
2017-09-07T08:40:11.532Z,14.30
2017-09-07T08:42:39.043Z,9.43
2017-09-07T08:45:06.627Z,13.20
2017-09-07T08:47:34.194Z,11.43
2017-09-07T08:50:01.730Z,10.10
2017-09-07T08:52:29.302Z,10.40
2017-09-07T08:54:57.135Z,11.40
2017-09-07T08:57:24.671Z,13.70
2017-09-07T08:59:52.227Z,9.20
2017-09-07T09:02:19.812Z,12.50
2017-09-07T09:04:47.475Z,14.60
2017-09-07T09:07:14.992Z,10.93
2017-09-07T09:09:42.553Z,9.50
2017-09-07T09:12:10.100Z,13.63
2017-09-07T09:14:37.671Z,12.33
2017-09-07T09:17:05.221Z,10.83
2017-09-07T09:19:32.818Z,12.90
2017-09-07T09:22:00.356Z,12.27
2017-09-07T09:24:28.179Z,14.37
2017-09-07T09:26:55.702Z,14.00
2017-09-07T09:29:23.264Z,9.50
2017-09-07T09:31:50.849Z,11.57
2017-09-07T09:34:18.424Z,12.40
2017-09-07T09:36:45.925Z,8.70
2017-09-07T09:39:13.586Z,13.77
2017-09-07T09:41:41.182Z,8.90
2017-09-07T09:44:08.700Z,10.30
2017-09-07T09:46:36.302Z,7.70
2017-09-07T09:49:04.223Z,14.13
2017-09-07T09:51:31.763Z,15.47
2017-09-07T09:53:59.353Z,10.80
2017-09-07T09:56:27.109Z,11.40
2017-09-07T09:58:55.041Z,11.67
2017-09-07T10:01:22.660Z,8.37
2017-09-07T10:03:50.222Z,9.83
2017-09-07T10:06:17.759Z,8.77
2017-09-07T10:08:45.310Z,7.93
2017-09-07T10:11:12.824Z,9.73
2017-09-07T10:13:40.325Z,7.13
2017-09-07T10:16:07.891Z,9.93
2017-09-07T10:18:35.463Z,11.33
2017-09-07T10:21:02.997Z,9.90
2017-09-07T10:23:30.567Z,8.87
2017-09-07T10:25:58.166Z,6.77
2017-09-07T10:28:25.939Z,6.23
2017-09-07T10:30:53.513Z,7.07
2017-09-07T10:33:21.026Z,8.40
2017-09-07T10:35:48.579Z,10.17
2017-09-07T10:38:16.173Z,6.93
2017-09-07T10:40:43.678Z,10.27
2017-09-07T10:43:11.216Z,10.67
2017-09-07T10:45:38.786Z,8.80
2017-09-07T10:48:06.303Z,8.80
2017-09-07T10:50:34.038Z,10.47
2017-09-07T10:53:01.650Z,7.63
2017-09-07T10:55:29.242Z,6.90
2017-09-07T10:57:56.762Z,6.97
2017-09-07T11:00:24.319Z,6.67
2017-09-07T11:02:51.826Z,10.53
2017-09-07T11:05:19.347Z,9.30
2017-09-07T11:07:46.940Z,5.70
2017-09-07T11:10:14.500Z,6.37
2017-09-07T11:12:42.116Z,5.90
2017-09-07T11:15:09.670Z,5.70
2017-09-07T11:17:37.178Z,7.83
2017-09-07T11:20:04.738Z,4.20
2017-09-07T11:22:32.294Z,9.83
2017-09-07T11:24:59.818Z,5.03
2017-09-07T11:27:27.615Z,5.17
2017-09-07T11:29:55.170Z,4.20
2017-09-07T11:32:22.754Z,4.10
2017-09-07T11:34:50.500Z,4.63
2017-09-07T11:37:18.035Z,5.10
2017-09-07T11:39:45.582Z,4.47
2017-09-07T11:42:13.125Z,9.40
2017-09-07T11:44:40.665Z,5.63
2017-09-07T11:47:08.237Z,6.07
2017-09-07T11:49:35.796Z,6.20
2017-09-07T11:52:03.686Z,3.30
2017-09-07T11:54:31.269Z,4.13
2017-09-07T11:56:58.823Z,6.53
2017-09-07T11:59:26.338Z,5.00
2017-09-07T12:01:53.947Z,3.03
2017-09-07T12:04:21.746Z,3.40
2017-09-07T12:06:49.918Z,4.50
2017-09-07T12:09:17.760Z,3.83
2017-09-07T12:11:45.319Z,4.77
2017-09-07T12:14:12.824Z,6.60
2017-09-07T12:16:40.377Z,3.57
2017-09-07T12:19:07.930Z,3.53
2017-09-07T12:21:35.676Z,3.77
2017-09-07T12:24:03.322Z,3.77
2017-09-07T12:26:30.852Z,2.67
2017-09-07T12:28:58.359Z,3.10
2017-09-07T12:31:25.922Z,3.47
2017-09-07T12:33:53.440Z,5.57
2017-09-07T12:36:21.007Z,3.40
2017-09-07T12:38:48.662Z,8.07
2017-09-07T12:41:16.194Z,4.77
2017-09-07T12:43:43.722Z,3.30
2017-09-07T12:46:11.306Z,2.60
2017-09-07T12:48:38.813Z,3.47
2017-09-07T12:51:06.318Z,4.83
2017-09-07T12:53:33.871Z,2.80
2017-09-07T12:56:01.375Z,3.10
2017-09-07T12:58:28.881Z,2.33
2017-09-07T13:00:56.420Z,2.93
2017-09-07T13:03:23.926Z,6.53
2017-09-07T13:05:51.731Z,2.70
2017-09-07T13:08:19.603Z,3.17
2017-09-07T13:10:47.154Z,4.80
2017-09-07T13:13:14.910Z,8.70
2017-09-07T13:15:42.502Z,3.90
2017-09-07T13:18:10.307Z,7.70
2017-09-07T13:20:38.758Z,3.80
2017-09-07T13:23:06.318Z,2.60
2017-09-07T13:25:33.816Z,3.40
2017-09-07T13:28:01.396Z,4.40
2017-09-07T13:30:28.966Z,2.90
2017-09-07T13:32:56.474Z,4.33
2017-09-07T13:35:24.036Z,2.53
2017-09-07T13:37:51.683Z,2.50
2017-09-07T13:40:19.925Z,2.80
2017-09-07T13:42:47.515Z,2.30
2017-09-07T13:45:15.573Z,4.57
2017-09-07T13:47:43.076Z,3.73
2017-09-07T13:50:10.870Z,5.30
2017-09-07T13:52:38.421Z,6.50
2017-09-07T13:55:06.022Z,3.00
2017-09-07T13:57:33.816Z,3.43
2017-09-07T14:00:01.362Z,4.23
2017-09-07T14:02:28.914Z,2.50
2017-09-07T14:04:56.458Z,2.67
2017-09-07T14:07:23.973Z,4.90
2017-09-07T14:09:51.515Z,3.77
2017-09-07T14:12:19.021Z,3.27
2017-09-07T14:14:46.610Z,2.70
2017-09-07T14:17:14.178Z,4.63
2017-09-07T14:19:41.705Z,4.10
2017-09-07T14:22:09.294Z,5.77
2017-09-07T14:24:37.084Z,4.23
2017-09-07T14:27:04.609Z,5.20
2017-09-07T14:29:32.110Z,5.73
2017-09-07T14:31:59.682Z,3.30
2017-09-07T14:34:27.206Z,7.43
2017-09-07T14:36:55.033Z,3.50
2017-09-07T14:39:22.578Z,4.03
2017-09-07T14:41:50.153Z,6.30
2017-09-07T14:44:17.668Z,4.10
2017-09-07T14:46:45.438Z,3.93
2017-09-07T14:49:13.181Z,4.33
2017-09-07T14:51:41.005Z,4.00
2017-09-07T14:54:08.594Z,4.37
2017-09-07T14:56:36.097Z,5.57
2017-09-07T14:59:03.631Z,5.53
2017-09-07T15:01:31.214Z,3.90
2017-09-07T15:03:58.762Z,4.13
2017-09-07T15:06:26.328Z,3.90
2017-09-07T15:08:53.864Z,4.50
2017-09-07T15:11:21.366Z,4.57
2017-09-07T15:13:48.862Z,4.27
2017-09-07T15:16:16.631Z,4.47
2017-09-07T15:18:44.363Z,3.90
2017-09-07T15:21:12.239Z,4.53
2017-09-07T15:23:39.837Z,8.67
2017-09-07T15:26:07.356Z,6.77
2017-09-07T15:28:35.132Z,7.03
2017-09-07T15:31:02.748Z,10.13
2017-09-07T15:33:30.277Z,8.23
2017-09-07T15:35:57.818Z,12.93
2017-09-07T15:38:25.372Z,7.63
2017-09-07T15:40:53.251Z,7.43
2017-09-07T15:43:20.830Z,6.10
2017-09-07T15:45:48.421Z,14.33
2017-09-07T15:48:15.970Z,10.53
2017-09-07T15:50:43.519Z,13.40
2017-09-07T15:53:11.110Z,10.33
2017-09-07T15:55:38.649Z,7.40
2017-09-07T15:58:06.284Z,8.23
2017-09-07T16:00:33.920Z,11.27
2017-09-07T16:03:01.457Z,8.30
2017-09-07T16:05:29.182Z,5.87
2017-09-07T16:07:56.963Z,11.77
2017-09-07T16:10:24.518Z,8.57
2017-09-07T16:12:52.019Z,8.20
2017-09-07T16:15:19.573Z,8.27
2017-09-07T16:17:47.081Z,7.93
2017-09-07T16:20:14.586Z,8.70
2017-09-07T16:22:42.522Z,9.70
2017-09-07T16:25:10.298Z,5.80
2017-09-07T16:27:37.798Z,6.50
2017-09-07T16:30:06.546Z,4.60
2017-09-07T16:32:34.064Z,10.23
2017-09-07T16:35:01.581Z,5.60
2017-09-07T16:37:29.167Z,5.67
2017-09-07T16:39:56.718Z,8.30
2017-09-07T16:42:24.233Z,5.50
2017-09-07T16:44:51.791Z,9.33
2017-09-07T16:47:19.290Z,7.67
2017-09-07T16:49:47.097Z,13.23
2017-09-07T16:52:14.684Z,10.50
2017-09-07T16:54:42.275Z,11.27
2017-09-07T16:57:09.817Z,13.13
2017-09-07T16:59:37.422Z,8.00
2017-09-07T17:02:04.955Z,10.50
2017-09-07T17:04:32.519Z,10.37
2017-09-07T17:07:00.116Z,13.20
2017-09-07T17:09:27.728Z,12.17
2017-09-07T17:11:55.247Z,10.73
2017-09-07T17:14:22.769Z,11.10
2017-09-07T17:16:50.349Z,9.67
2017-09-07T17:19:17.859Z,16.10
2017-09-07T17:21:45.439Z,8.50
2017-09-07T17:24:13.054Z,7.87
2017-09-07T17:26:40.579Z,12.07
2017-09-07T17:29:08.154Z,7.57
2017-09-07T17:31:35.709Z,16.33
2017-09-07T17:34:03.295Z,7.33
2017-09-07T17:36:38.467Z,8.90
2017-09-07T17:39:06.009Z,10.60
2017-09-07T17:41:33.545Z,10.13
2017-09-07T17:44:01.121Z,10.07
2017-09-07T17:46:28.703Z,7.23
2017-09-07T17:48:56.258Z,9.83
2017-09-07T17:51:23.809Z,7.70
2017-09-07T17:53:51.571Z,11.30
2017-09-07T17:56:19.099Z,11.30
2017-09-07T17:58:46.692Z,9.27
2017-09-07T18:01:14.435Z,11.23
2017-09-07T18:03:41.983Z,16.87
2017-09-07T18:06:09.521Z,7.93
2017-09-07T18:08:37.831Z,10.63
2017-09-07T18:11:05.578Z,10.43
2017-09-07T18:13:34.122Z,10.50
2017-09-07T18:16:01.717Z,13.70
2017-09-07T18:18:29.310Z,8.67
2017-09-07T18:20:56.986Z,6.80
2017-09-07T18:23:24.655Z,14.77
2017-09-07T18:25:52.471Z,10.80
2017-09-07T18:28:20.191Z,11.37
2017-09-07T18:30:47.807Z,11.60
2017-09-07T18:33:15.383Z,14.97
2017-09-07T18:35:43.143Z,11.77
2017-09-07T18:38:10.747Z,9.63
2017-09-07T18:40:38.370Z,11.97
2017-09-07T18:43:05.916Z,11.80
2017-09-07T18:45:34.315Z,10.03
2017-09-07T18:48:02.129Z,15.70
2017-09-07T18:50:29.867Z,10.27
2017-09-07T18:52:57.442Z,14.40
2017-09-07T18:55:25.219Z,16.73
2017-09-07T18:57:52.814Z,22.67
2017-09-07T19:00:20.516Z,15.17
2017-09-07T19:02:48.090Z,15.97
2017-09-07T19:05:15.670Z,18.07
2017-09-07T19:07:43.315Z,14.03
2017-09-07T19:10:10.849Z,19.37
2017-09-07T19:12:38.417Z,20.50
2017-09-07T19:15:06.014Z,19.27
2017-09-07T19:17:33.574Z,12.47
2017-09-07T19:20:01.173Z,12.93
2017-09-07T19:22:28.805Z,19.50
2017-09-07T19:24:56.397Z,13.33
2017-09-07T19:27:24.142Z,25.87
2017-09-07T19:29:51.746Z,22.67
2017-09-07T19:32:19.322Z,20.07
2017-09-07T19:34:46.861Z,29.47
2017-09-07T19:37:14.616Z,19.90
2017-09-07T19:39:42.182Z,19.83
2017-09-07T19:42:15.779Z,23.77
2017-09-07T19:44:43.603Z,12.13
2017-09-07T19:47:11.197Z,15.83
2017-09-07T19:49:38.736Z,13.70
2017-09-07T19:52:06.335Z,16.03
2017-09-07T19:54:33.880Z,16.40
2017-09-07T19:57:01.546Z,11.20
2017-09-07T19:59:29.437Z,18.10
2017-09-07T20:01:58.066Z,15.73
2017-09-07T20:04:25.657Z,19.17
2017-09-07T20:06:54.163Z,14.60
2017-09-07T20:09:21.798Z,18.20
2017-09-07T20:11:49.345Z,15.73
2017-09-07T20:14:16.982Z,10.10
2017-09-07T20:16:44.643Z,20.50
2017-09-07T20:19:12.270Z,12.50
2017-09-07T20:21:39.875Z,18.37
2017-09-07T20:24:07.525Z,23.53
2017-09-07T20:26:35.114Z,20.27
2017-09-07T20:29:03.604Z,16.23
2017-09-07T20:31:31.760Z,15.03
2017-09-07T20:33:59.373Z,20.20
2017-09-07T20:36:26.935Z,15.47
2017-09-07T20:38:54.571Z,16.23
2017-09-07T20:41:22.623Z,30.00
2017-09-07T20:43:50.235Z,14.03
2017-09-07T20:46:17.847Z,11.00
2017-09-07T20:48:45.442Z,14.03
2017-09-07T20:51:13.003Z,11.90
2017-09-07T20:53:40.598Z,11.10
2017-09-07T20:56:08.166Z,15.77
2017-09-07T20:58:35.818Z,13.07
2017-09-07T21:01:03.477Z,6.57
2017-09-07T21:03:31.097Z,10.97
2017-09-07T21:05:58.664Z,7.90
2017-09-07T21:08:26.946Z,7.30
2017-09-07T21:10:54.595Z,7.33
2017-09-07T21:13:22.243Z,7.60
2017-09-07T21:15:49.815Z,11.13
2017-09-07T21:18:17.515Z,12.63
2017-09-07T21:20:45.188Z,11.17
2017-09-07T21:23:12.861Z,12.53
2017-09-07T21:25:40.479Z,10.40
2017-09-07T21:28:08.083Z,13.10
2017-09-07T21:30:35.742Z,12.70
2017-09-07T21:33:03.349Z,15.63
2017-09-07T21:35:30.933Z,17.20
2017-09-07T21:37:59.562Z,12.57
2017-09-07T21:40:28.193Z,17.53
2017-09-07T21:42:56.046Z,13.97
2017-09-07T21:45:23.742Z,13.23
2017-09-07T21:47:51.347Z,10.80
2017-09-07T21:50:20.509Z,12.50
2017-09-07T21:52:48.595Z,12.73
2017-09-07T21:55:16.150Z,11.40
2017-09-07T21:57:44.074Z,8.20
2017-09-07T22:00:11.758Z,7.97
2017-09-07T22:02:39.333Z,15.03
2017-09-07T22:05:07.171Z,10.53
2017-09-07T22:07:34.741Z,9.33
2017-09-07T22:10:02.668Z,8.03
2017-09-07T22:12:30.297Z,8.33
2017-09-07T22:14:57.889Z,8.83
2017-09-07T22:17:25.787Z,11.80
2017-09-07T22:19:53.970Z,9.10
2017-09-07T22:22:21.559Z,12.03
2017-09-07T22:24:49.103Z,12.70
2017-09-07T22:27:16.679Z,9.30
2017-09-07T22:29:44.282Z,21.57
2017-09-07T22:32:11.887Z,7.40
2017-09-07T22:34:39.485Z,11.00
2017-09-07T22:37:07.104Z,9.60
2017-09-07T22:39:35.487Z,12.23
2017-09-07T22:42:03.247Z,7.97
2017-09-07T22:44:31.025Z,11.20
2017-09-07T22:46:58.605Z,10.23
2017-09-07T22:49:26.368Z,7.90
2017-09-07T22:51:53.991Z,7.00
2017-09-07T22:54:21.601Z,7.70
2017-09-07T22:56:49.679Z,11.17
2017-09-07T22:59:17.726Z,7.57
2017-09-07T23:01:45.366Z,11.90
2017-09-07T23:04:12.952Z,11.73
2017-09-07T23:06:40.591Z,9.80
2017-09-07T23:09:08.186Z,9.23
2017-09-07T23:11:35.980Z,10.50
2017-09-07T23:14:03.555Z,8.50
2017-09-07T23:16:31.150Z,11.23
2017-09-07T23:18:58.705Z,13.13
2017-09-07T23:21:26.243Z,10.53
2017-09-07T23:23:53.871Z,7.73
2017-09-07T23:26:21.422Z,10.73
2017-09-07T23:28:49.037Z,11.40
2017-09-07T23:31:16.618Z,8.77
2017-09-07T23:33:44.196Z,8.80
2017-09-07T23:36:11.959Z,12.80
2017-09-07T23:38:39.550Z,8.43
2017-09-07T23:41:07.106Z,9.63
2017-09-07T23:43:34.706Z,10.30
2017-09-07T23:46:02.315Z,14.87
2017-09-07T23:48:29.934Z,17.40
2017-09-07T23:50:59.962Z,12.30
2017-09-07T23:53:27.584Z,9.13
2017-09-07T23:55:55.324Z,9.20
2017-09-07T23:58:23.151Z,10.13
